createdAt,value
2022-10-18T00:01:00.381Z,96563.88
2022-10-18T00:03:27.563Z,96573.22
2022-10-18T00:05:54.880Z,96571.50
2022-10-18T00:08:22.493Z,96566.63
2022-10-18T00:10:51.368Z,96575.19
2022-10-18T00:13:18.958Z,96575.44
2022-10-18T00:15:50.548Z,96575.19
2022-10-18T00:18:17.668Z,96577.97
2022-10-18T00:20:44.888Z,96578.19
2022-10-18T00:23:11.989Z,96577.97
2022-10-18T00:25:39.069Z,96575.09
2022-10-18T00:28:07.606Z,96578.34
2022-10-18T00:30:34.707Z,96575.69
2022-10-18T00:33:01.812Z,96580.56
2022-10-18T00:35:29.070Z,96580.09
2022-10-18T00:37:56.106Z,96581.03
2022-10-18T00:40:23.187Z,96581.97
2022-10-18T00:42:50.227Z,96587.44
2022-10-18T00:45:22.166Z,96580.03
2022-10-18T00:47:55.747Z,96585.16
2022-10-18T00:50:25.267Z,96586.41
2022-10-18T00:52:57.107Z,96585.59
2022-10-18T00:55:25.448Z,96591.97
2022-10-18T01:00:23.809Z,96589.88
2022-10-18T01:02:51.928Z,96586.88
2022-10-18T01:05:20.930Z,96588.34
2022-10-18T01:08:19.206Z,96587.09
2022-10-18T01:10:55.509Z,96587.56
2022-10-18T01:13:37.748Z,96596.44
2022-10-18T01:16:17.306Z,96598.19
2022-10-18T01:18:51.846Z,96592.38
2022-10-18T01:21:33.247Z,96591.47
2022-10-18T01:24:38.127Z,96585.38
2022-10-18T01:27:49.389Z,96580.16
2022-10-18T01:30:48.304Z,96586.50
2022-10-18T01:33:30.486Z,96586.06
2022-10-18T01:36:05.924Z,96580.84
2022-10-18T01:38:37.025Z,96590.09
2022-10-18T01:41:11.759Z,96589.63
2022-10-18T01:43:46.624Z,96587.56
2022-10-18T01:46:20.245Z,96583.28
2022-10-18T01:48:48.364Z,96592.53
2022-10-18T01:51:15.485Z,96592.97
2022-10-18T01:53:42.524Z,96593.88
2022-10-18T01:56:29.945Z,96591.13
2022-10-18T01:59:29.287Z,96588.00
2022-10-18T02:02:10.124Z,96590.06
2022-10-18T02:04:47.146Z,96580.34
2022-10-18T02:07:26.865Z,96582.06
2022-10-18T02:10:04.400Z,96578.03
2022-10-18T02:12:34.926Z,96583.56
2022-10-18T02:15:06.266Z,96582.13
2022-10-18T02:17:35.804Z,96582.38
2022-10-18T02:20:08.609Z,96577.41
2022-10-18T02:22:39.146Z,96587.88
2022-10-18T02:25:11.831Z,96581.34
2022-10-18T02:27:38.884Z,96583.88
2022-10-18T02:30:07.417Z,96576.56
2022-10-18T02:32:43.425Z,96568.16
2022-10-18T02:35:20.466Z,96574.94
2022-10-18T02:37:50.415Z,96576.44
2022-10-18T02:40:18.445Z,96580.69
2022-10-18T02:42:49.144Z,96575.97
2022-10-18T02:45:17.367Z,96572.28
2022-10-18T02:47:46.267Z,96575.53
2022-10-18T02:50:14.268Z,96579.59
2022-10-18T02:52:41.326Z,96575.88
2022-10-18T02:55:09.967Z,96577.13
2022-10-18T02:57:37.106Z,96570.44
2022-10-18T03:00:06.004Z,96582.09
2022-10-18T03:02:33.246Z,96581.66
2022-10-18T03:05:01.849Z,96584.31
2022-10-18T03:07:29.088Z,96588.38
2022-10-18T03:09:56.285Z,96597.38
2022-10-18T03:12:23.325Z,96596.59
2022-10-18T03:14:50.322Z,96603.75
2022-10-18T03:17:17.383Z,96596.09
2022-10-18T03:19:44.442Z,96601.53
2022-10-18T03:22:12.963Z,96599.81
2022-10-18T03:24:40.026Z,96601.41
2022-10-18T03:27:07.122Z,96610.22
2022-10-18T03:29:34.161Z,96614.13
2022-10-18T03:32:01.180Z,96609.19
2022-10-18T03:34:28.205Z,96615.66
2022-10-18T03:36:55.241Z,96605.00
2022-10-18T03:39:23.827Z,96608.72
2022-10-18T03:41:50.808Z,96610.06
2022-10-18T03:44:17.865Z,96608.13
2022-10-18T03:46:44.885Z,96609.97
2022-10-18T03:49:11.966Z,96613.78
2022-10-18T03:51:38.965Z,96616.88
2022-10-18T03:54:06.026Z,96614.56
2022-10-18T03:56:34.607Z,96627.25
2022-10-18T03:59:01.666Z,96626.59
2022-10-18T04:01:28.812Z,96625.00
2022-10-18T04:03:56.165Z,96630.56
2022-10-18T04:06:23.247Z,96634.97
2022-10-18T04:08:50.305Z,96638.63
2022-10-18T04:11:17.406Z,96644.97
2022-10-18T04:13:45.885Z,96641.28
2022-10-18T04:16:12.885Z,96639.97
2022-10-18T04:18:40.006Z,96641.59
2022-10-18T04:21:07.285Z,96646.19
2022-10-18T04:23:37.924Z,96642.75
2022-10-18T04:26:06.586Z,96644.66
2022-10-18T04:28:34.424Z,96640.38
2022-10-18T04:31:03.045Z,96641.16
2022-10-18T04:33:30.106Z,96637.19
2022-10-18T04:35:57.165Z,96638.72
2022-10-18T04:38:24.210Z,96632.22
2022-10-18T04:40:51.367Z,96637.09
2022-10-18T04:43:18.830Z,96632.13
2022-10-18T04:45:45.946Z,96637.19
2022-10-18T04:48:14.784Z,96633.59
2022-10-18T04:50:41.845Z,96633.81
2022-10-18T04:53:08.906Z,96638.91
2022-10-18T04:55:36.048Z,96640.16
2022-10-18T04:58:03.086Z,96647.69
2022-10-18T05:00:30.089Z,96642.81
2022-10-18T05:02:57.746Z,96646.41
2022-10-18T05:05:43.252Z,96646.75
2022-10-18T05:08:13.705Z,96649.31
2022-10-18T05:10:41.029Z,96651.28
2022-10-18T05:13:08.089Z,96642.28
2022-10-18T05:15:35.168Z,96637.28
2022-10-18T05:18:02.244Z,96639.56
2022-10-18T05:20:30.908Z,96645.09
2022-10-18T05:22:58.244Z,96643.22
2022-10-18T05:25:25.405Z,96640.81
2022-10-18T05:27:52.406Z,96637.00
2022-10-18T05:30:19.466Z,96639.28
2022-10-18T05:32:46.530Z,96649.78
2022-10-18T05:35:13.566Z,96651.75
2022-10-18T05:37:42.086Z,96650.63
2022-10-18T05:40:10.614Z,96654.91
2022-10-18T05:42:37.585Z,96647.19
2022-10-18T05:45:05.408Z,96645.31
2022-10-18T05:47:32.537Z,96657.56
2022-10-18T05:49:59.607Z,96647.97
2022-10-18T05:52:26.628Z,96651.00
2022-10-18T05:54:55.126Z,96646.06
2022-10-18T05:57:22.169Z,96648.72
2022-10-18T05:59:49.246Z,96650.03
2022-10-18T06:02:16.358Z,96641.88
2022-10-18T06:04:43.491Z,96647.19
2022-10-18T06:07:11.847Z,96642.44
2022-10-18T06:09:39.347Z,96641.13
2022-10-18T06:12:07.916Z,96651.84
2022-10-18T06:14:35.181Z,96641.47
2022-10-18T06:17:02.228Z,96647.69
2022-10-18T06:19:29.374Z,96644.13
2022-10-18T06:21:56.449Z,96643.19
2022-10-18T06:24:23.567Z,96642.38
2022-10-18T06:26:50.607Z,96652.56
2022-10-18T06:29:19.066Z,96657.88
2022-10-18T06:31:46.166Z,96660.41
2022-10-18T06:34:13.246Z,96656.91
2022-10-18T06:36:40.306Z,96660.84
2022-10-18T06:39:07.426Z,96663.72
2022-10-18T06:41:34.516Z,96668.38
2022-10-18T06:44:01.547Z,96677.09
2022-10-18T06:46:30.152Z,96678.25
2022-10-18T06:48:57.308Z,96688.63
2022-10-18T06:51:24.385Z,96676.59
2022-10-18T06:54:06.326Z,96676.13
2022-10-18T06:56:39.507Z,96670.53
2022-10-18T06:59:06.628Z,96673.59
2022-10-18T07:01:35.142Z,96673.69
2022-10-18T07:04:02.211Z,96674.31
2022-10-18T07:06:29.287Z,96672.38
2022-10-18T07:08:56.387Z,96675.84
2022-10-18T07:11:26.249Z,96671.88
2022-10-18T07:13:54.926Z,96671.31
2022-10-18T07:16:22.322Z,96673.34
2022-10-18T07:18:51.886Z,96673.50
2022-10-18T07:21:20.862Z,96668.81
2022-10-18T07:23:48.486Z,96678.81
2022-10-18T07:26:18.507Z,96680.16
2022-10-18T07:28:48.161Z,96686.94
2022-10-18T07:31:16.206Z,96686.41
2022-10-18T07:33:43.287Z,96684.50
2022-10-18T07:36:13.648Z,96688.78
2022-10-18T07:38:41.893Z,96686.31
2022-10-18T07:41:12.218Z,96685.25
2022-10-18T07:43:43.026Z,96681.28
2022-10-18T07:46:10.046Z,96679.81
2022-10-18T07:48:37.146Z,96680.72
2022-10-18T07:51:05.329Z,96687.34
2022-10-18T07:53:33.927Z,96688.00
2022-10-18T07:56:04.556Z,96680.13
2022-10-18T07:58:34.746Z,96680.13
2022-10-18T08:01:03.287Z,96679.19
2022-10-18T08:03:30.447Z,96672.25
2022-10-18T08:05:57.705Z,96671.94
2022-10-18T08:08:26.107Z,96676.44
2022-10-18T08:10:54.947Z,96678.44
2022-10-18T08:13:22.665Z,96678.59
2022-10-18T08:15:49.745Z,96682.09
2022-10-18T08:18:16.907Z,96680.31
2022-10-18T08:20:44.556Z,96678.81
2022-10-18T08:23:11.712Z,96679.78
2022-10-18T08:25:39.090Z,96688.69
2022-10-18T08:28:08.222Z,96690.28
2022-10-18T08:30:36.367Z,96684.19
2022-10-18T08:33:03.586Z,96679.13
2022-10-18T08:35:30.911Z,96682.69
2022-10-18T08:37:58.228Z,96682.16
2022-10-18T08:40:26.225Z,96690.72
2022-10-18T08:43:12.867Z,96683.50
2022-10-18T08:45:42.744Z,96679.81
2022-10-18T08:48:21.388Z,96668.00
2022-10-18T08:50:51.509Z,96668.56
2022-10-18T08:53:27.914Z,96669.88
2022-10-18T08:56:03.747Z,96663.44
2022-10-18T08:58:33.351Z,96670.41
2022-10-18T09:01:12.087Z,96673.66
2022-10-18T09:03:57.593Z,96667.78
2022-10-18T09:06:33.987Z,96674.72
2022-10-18T09:09:17.547Z,96660.44
2022-10-18T09:12:02.196Z,96664.50
2022-10-18T09:15:08.405Z,96665.88
2022-10-18T09:17:48.546Z,96668.34
2022-10-18T09:20:24.594Z,96656.00
2022-10-18T09:22:55.410Z,96650.09
2022-10-18T09:25:25.446Z,96658.13
2022-10-18T09:27:55.626Z,96656.53
2022-10-18T09:30:41.426Z,96654.66
2022-10-18T09:33:27.948Z,96657.28
2022-10-18T09:35:59.265Z,96649.00
2022-10-18T09:38:32.466Z,96654.66
2022-10-18T09:41:06.706Z,96649.78
2022-10-18T09:43:49.914Z,96651.41
2022-10-18T09:46:22.086Z,96643.34
2022-10-18T09:48:56.058Z,96641.72
2022-10-18T09:51:29.665Z,96644.94
2022-10-18T09:54:13.986Z,96646.03
2022-10-18T09:56:48.593Z,96651.13
2022-10-18T09:59:34.169Z,96643.63
2022-10-18T10:02:03.555Z,96645.75
2022-10-18T10:04:30.715Z,96640.94
2022-10-18T10:07:01.005Z,96638.78
2022-10-18T10:09:30.551Z,96639.88
2022-10-18T10:11:58.692Z,96637.69
2022-10-18T10:14:27.989Z,96640.59
2022-10-18T10:16:58.692Z,96637.91
2022-10-18T10:19:32.328Z,96634.13
2022-10-18T10:22:05.752Z,96638.47
2022-10-18T10:24:48.413Z,96631.47
2022-10-18T10:27:20.148Z,96641.13
2022-10-18T10:30:04.147Z,96640.91
2022-10-18T10:32:47.071Z,96645.19
2022-10-18T10:35:42.151Z,96641.13
2022-10-18T10:38:24.781Z,96640.31
2022-10-18T10:40:52.149Z,96633.31
2022-10-18T10:43:40.122Z,96632.19
2022-10-18T10:46:10.469Z,96631.63
2022-10-18T10:48:47.989Z,96620.88
2022-10-18T10:51:28.129Z,96625.81
2022-10-18T10:54:03.907Z,96620.75
2022-10-18T10:56:34.041Z,96627.19
2022-10-18T10:59:10.462Z,96624.13
2022-10-18T11:01:37.630Z,96621.44
2022-10-18T11:04:25.608Z,96619.91
2022-10-18T11:07:04.867Z,96616.50
2022-10-18T11:09:56.445Z,96612.22
2022-10-18T11:12:32.980Z,96609.28
2022-10-18T11:15:17.427Z,96600.16
2022-10-18T11:17:58.389Z,96596.66
2022-10-18T11:20:32.205Z,96597.97
2022-10-18T11:23:03.663Z,96588.31
2022-10-18T11:25:58.912Z,96589.38
2022-10-18T11:28:45.745Z,96594.75
2022-10-18T11:31:24.069Z,96584.25
2022-10-18T11:34:16.028Z,96577.28
2022-10-18T11:36:56.103Z,96572.75
2022-10-18T11:39:54.889Z,96574.09
2022-10-18T11:42:39.987Z,96567.91
2022-10-18T11:45:26.600Z,96567.88
2022-10-18T11:48:05.588Z,96563.88
2022-10-18T11:50:42.961Z,96554.53
2022-10-18T11:53:24.988Z,96556.13
2022-10-18T11:56:08.429Z,96549.97
2022-10-18T11:58:55.329Z,96545.94
2022-10-18T12:01:33.102Z,96529.56
2022-10-18T12:04:10.429Z,96527.16
2022-10-18T12:06:40.928Z,96525.56
2022-10-18T12:09:20.009Z,96522.03
2022-10-18T12:11:55.798Z,96513.72
2022-10-18T12:14:27.276Z,96518.84
2022-10-18T12:17:26.464Z,96516.16
2022-10-18T12:19:51.891Z,96514.28
2022-10-18T12:22:25.903Z,96521.53
2022-10-18T12:24:53.067Z,96512.41
2022-10-18T12:27:36.790Z,96504.09
2022-10-18T12:30:14.456Z,96500.06
2022-10-18T12:32:56.390Z,96501.16
2022-10-18T12:35:41.529Z,96501.16
2022-10-18T12:38:21.668Z,96496.28
2022-10-18T12:40:54.807Z,96490.69
2022-10-18T12:43:27.289Z,96486.94
2022-10-18T12:45:57.145Z,96481.56
2022-10-18T12:48:36.337Z,96481.84
2022-10-18T12:51:12.706Z,96477.56
2022-10-18T12:53:40.748Z,96474.06
2022-10-18T12:56:35.129Z,96466.81
2022-10-18T12:59:50.046Z,96467.63
2022-10-18T13:02:31.955Z,96460.63
2022-10-18T13:05:00.771Z,96463.63
2022-10-18T13:07:39.650Z,96461.44
2022-10-18T13:10:40.189Z,96467.59
2022-10-18T13:13:39.041Z,96462.22
2022-10-18T13:16:21.173Z,96462.25
2022-10-18T13:18:54.509Z,96460.91
2022-10-18T13:21:40.376Z,96455.00
2022-10-18T13:24:23.998Z,96446.16
2022-10-18T13:27:31.436Z,96445.88
2022-10-18T13:30:38.368Z,96449.63
2022-10-18T13:33:31.832Z,96443.97
2022-10-18T13:36:05.368Z,96440.75
2022-10-18T13:38:48.562Z,96448.25
2022-10-18T13:41:18.701Z,96439.97
2022-10-18T13:44:10.897Z,96449.06
2022-10-18T13:47:19.467Z,96450.59
2022-10-18T13:50:09.790Z,96441.22
2022-10-18T13:53:07.809Z,96438.28
2022-10-18T13:55:55.789Z,96439.31
2022-10-18T13:58:48.967Z,96435.84
2022-10-18T14:01:33.453Z,96442.28
2022-10-18T14:05:11.164Z,96443.88
2022-10-18T14:07:51.617Z,96441.75
2022-10-18T14:10:43.242Z,96437.19
2022-10-18T14:13:22.869Z,96443.06
2022-10-18T14:15:54.748Z,96435.03
2022-10-18T14:18:31.450Z,96431.03
2022-10-18T14:21:14.058Z,96439.53
2022-10-18T14:23:46.187Z,96440.63
2022-10-18T14:26:16.807Z,96439.56
2022-10-18T14:28:59.583Z,96422.69
2022-10-18T14:31:28.188Z,96425.13
2022-10-18T14:33:58.904Z,96424.59
2022-10-18T14:36:29.655Z,96422.44
2022-10-18T14:39:00.711Z,96418.69
2022-10-18T14:41:29.949Z,96430.72
2022-10-18T14:44:17.888Z,96425.06
2022-10-18T14:46:47.368Z,96421.34
2022-10-18T14:49:16.269Z,96429.06
2022-10-18T14:51:46.568Z,96419.44
2022-10-18T14:54:18.169Z,96419.31
2022-10-18T14:56:46.247Z,96417.75
2022-10-18T14:59:18.815Z,96418.28
2022-10-18T15:01:56.691Z,96409.69
2022-10-18T15:04:28.536Z,96410.22
2022-10-18T15:06:56.991Z,96407.81
2022-10-18T15:09:29.891Z,96407.25
2022-10-18T15:11:58.161Z,96407.25
2022-10-18T15:14:28.820Z,96403.22
2022-10-18T15:17:01.781Z,96412.56
2022-10-18T15:19:32.068Z,96408.84
2022-10-18T15:25:11.503Z,96404.53
2022-10-18T15:27:43.595Z,96403.50
2022-10-18T15:30:24.325Z,96410.69
2022-10-18T15:32:54.549Z,96409.06
2022-10-18T15:35:26.477Z,96402.91
2022-10-18T15:37:55.867Z,96398.88
2022-10-18T15:40:39.148Z,96403.19
2022-10-18T15:43:36.070Z,96392.75
2022-10-18T15:46:06.509Z,96396.47
2022-10-18T15:48:37.522Z,96395.16
2022-10-18T15:51:07.141Z,96384.13
2022-10-18T15:53:50.402Z,96386.03
2022-10-18T15:56:35.887Z,96378.56
2022-10-18T15:59:06.325Z,96370.25
2022-10-18T16:01:44.531Z,96371.84
2022-10-18T16:04:18.797Z,96369.19
2022-10-18T16:06:46.007Z,96363.59
2022-10-18T16:09:17.144Z,96364.91
2022-10-18T16:11:46.061Z,96362.25
2022-10-18T16:14:13.744Z,96361.41
2022-10-18T16:16:40.861Z,96359.03
2022-10-18T16:19:08.373Z,96363.41
2022-10-18T16:21:38.043Z,96366.16
2022-10-18T16:24:06.564Z,96364.03
2022-10-18T16:26:34.962Z,96365.38
2022-10-18T16:29:05.197Z,96366.97
2022-10-18T16:31:34.926Z,96357.63
2022-10-18T16:34:02.040Z,96359.75
2022-10-18T16:36:31.789Z,96363.63
2022-10-18T16:39:02.766Z,96364.91
2022-10-18T16:41:29.947Z,96363.50
2022-10-18T16:43:57.004Z,96371.47
2022-10-18T16:46:28.106Z,96366.03
2022-10-18T16:48:55.944Z,96369.72
2022-10-18T16:51:24.086Z,96379.53
2022-10-18T16:53:51.944Z,96370.69
2022-10-18T16:56:22.549Z,96368.75
2022-10-18T16:58:49.709Z,96384.97
2022-10-18T17:01:19.175Z,96380.88
2022-10-18T17:03:48.774Z,96388.28
2022-10-18T17:06:18.280Z,96387.69
2022-10-18T17:08:45.741Z,96384.91
2022-10-18T17:11:15.284Z,96385.66
2022-10-18T17:13:43.586Z,96381.03
2022-10-18T17:16:23.049Z,96383.63
2022-10-18T17:18:51.781Z,96392.88
2022-10-18T17:21:19.644Z,96391.22
2022-10-18T17:23:46.856Z,96394.78
2022-10-18T17:26:28.257Z,96395.03
2022-10-18T17:28:58.641Z,96399.25
2022-10-18T17:31:26.143Z,96397.31
2022-10-18T17:33:54.631Z,96409.53
2022-10-18T17:36:22.543Z,96407.63
2022-10-18T17:38:51.278Z,96414.28
2022-10-18T17:41:18.905Z,96414.19
2022-10-18T17:43:45.944Z,96417.84
2022-10-18T17:46:13.805Z,96417.13
2022-10-18T17:48:41.303Z,96420.28
2022-10-18T17:51:12.786Z,96422.88
2022-10-18T17:53:40.028Z,96422.88
2022-10-18T17:56:08.337Z,96428.94
2022-10-18T17:58:36.103Z,96432.91
2022-10-18T18:01:10.880Z,96428.56
2022-10-18T18:03:38.861Z,96429.56
2022-10-18T18:06:19.031Z,96430.03
2022-10-18T18:08:46.981Z,96430.16
2022-10-18T18:11:15.362Z,96433.34
2022-10-18T18:13:42.722Z,96427.69
2022-10-18T18:16:11.979Z,96442.00
2022-10-18T18:18:39.201Z,96436.09
2022-10-18T18:21:06.460Z,96441.88
2022-10-18T18:23:35.041Z,96444.09
2022-10-18T18:26:02.246Z,96442.00
2022-10-18T18:28:29.416Z,96444.09
2022-10-18T18:30:56.580Z,96446.75
2022-10-18T18:33:23.840Z,96442.00
2022-10-18T18:35:57.871Z,96444.91
2022-10-18T18:38:25.683Z,96451.91
2022-10-18T18:41:05.300Z,96444.50
2022-10-18T18:43:33.282Z,96448.50
2022-10-18T18:46:00.443Z,96446.03
2022-10-18T18:48:28.160Z,96440.91
2022-10-18T18:50:55.603Z,96451.16
2022-10-18T18:53:25.999Z,96448.03
2022-10-18T18:56:03.461Z,96451.72
2022-10-18T18:58:30.608Z,96445.06
2022-10-18T19:00:57.942Z,96446.59
2022-10-18T19:03:25.281Z,96440.34
2022-10-18T19:06:01.930Z,96442.97
2022-10-18T19:08:29.274Z,96439.63
2022-10-18T19:10:56.363Z,96444.66
2022-10-18T19:13:25.000Z,96450.47
2022-10-18T19:15:52.043Z,96449.09
2022-10-18T19:18:23.188Z,96445.03
2022-10-18T19:20:51.142Z,96449.50
2022-10-18T19:23:18.240Z,96450.53
2022-10-18T19:25:45.353Z,96447.22
2022-10-18T19:28:12.406Z,96447.38
2022-10-18T19:30:41.021Z,96444.38
2022-10-18T19:33:08.202Z,96441.97
2022-10-18T19:35:35.279Z,96449.72
2022-10-18T19:38:02.360Z,96438.25
2022-10-18T19:40:29.465Z,96444.03
2022-10-18T19:42:56.560Z,96435.50
2022-10-18T19:45:23.641Z,96437.09
2022-10-18T19:47:52.133Z,96441.53
2022-10-18T19:50:19.275Z,96440.50
2022-10-18T19:52:46.420Z,96445.31
2022-10-18T19:55:13.619Z,96448.22
2022-10-18T19:57:40.707Z,96439.53
2022-10-18T20:00:10.869Z,96440.81
2022-10-18T20:02:38.582Z,96450.19
2022-10-18T20:05:07.961Z,96449.50
2022-10-18T20:07:35.200Z,96446.28
2022-10-18T20:10:02.383Z,96448.88
2022-10-18T20:12:29.701Z,96439.97
2022-10-18T20:14:56.981Z,96437.53
2022-10-18T20:17:24.100Z,96440.44
2022-10-18T20:19:51.121Z,96439.63
2022-10-18T20:22:19.601Z,96442.78
2022-10-18T20:24:46.721Z,96436.97
2022-10-18T20:27:13.830Z,96437.22
2022-10-18T20:29:40.942Z,96443.75
2022-10-18T20:32:08.383Z,96441.06
2022-10-18T20:34:35.510Z,96437.84
2022-10-18T20:37:02.942Z,96441.53
2022-10-18T20:39:31.720Z,96441.22
2022-10-18T20:41:59.202Z,96452.09
2022-10-18T20:44:26.464Z,96444.56
2022-10-18T20:46:53.482Z,96443.44
2022-10-18T20:49:20.663Z,96445.78
2022-10-18T20:51:47.802Z,96442.28
2022-10-18T20:54:14.902Z,96446.63
2022-10-18T20:56:43.582Z,96436.94
2022-10-18T20:59:10.660Z,96442.84
2022-10-18T21:01:40.119Z,96443.28
2022-10-18T21:04:09.482Z,96444.22
2022-10-18T21:06:39.753Z,96438.81
2022-10-18T21:09:09.321Z,96443.00
2022-10-18T21:11:38.839Z,96436.53
2022-10-18T21:14:11.339Z,96433.28
2022-10-18T21:16:38.720Z,96436.97
2022-10-18T21:19:07.680Z,96434.31
2022-10-18T21:21:35.461Z,96433.75
2022-10-18T21:24:06.931Z,96430.41
2022-10-18T21:26:36.683Z,96429.59
2022-10-18T21:29:05.284Z,96433.75
2022-10-18T21:31:36.357Z,96436.75
2022-10-18T21:34:06.100Z,96426.09
2022-10-18T21:36:37.222Z,96426.59
2022-10-18T21:39:06.722Z,96421.72
2022-10-18T21:41:35.081Z,96422.53
2022-10-18T21:44:05.612Z,96420.69
2022-10-18T21:46:37.566Z,96427.03
2022-10-18T21:49:05.652Z,96418.97
2022-10-18T21:51:32.900Z,96418.66
2022-10-18T21:53:59.987Z,96420.47
2022-10-18T21:56:29.060Z,96417.81
2022-10-18T21:58:57.480Z,96409.28
2022-10-18T22:01:27.338Z,96403.63
2022-10-18T22:03:57.340Z,96401.22
2022-10-18T22:06:26.145Z,96397.97
2022-10-18T22:08:55.624Z,96400.84
2022-10-18T22:11:26.408Z,96399.50
2022-10-18T22:13:54.503Z,96402.84
2022-10-18T22:16:22.020Z,96403.06
2022-10-18T22:18:50.381Z,96401.44
2022-10-18T22:21:20.359Z,96402.09
2022-10-18T22:23:50.322Z,96400.63
2022-10-18T22:26:21.502Z,96400.88
2022-10-18T22:28:54.831Z,96390.81
2022-10-18T22:31:24.583Z,96391.97
2022-10-18T22:33:54.863Z,96387.72
2022-10-18T22:36:24.360Z,96388.41
2022-10-18T22:38:51.804Z,96380.44
2022-10-18T22:41:19.673Z,96385.81
2022-10-18T22:43:47.180Z,96383.75
2022-10-18T22:46:15.459Z,96385.84
2022-10-18T22:48:44.182Z,96382.97
2022-10-18T22:51:12.361Z,96378.56
2022-10-18T22:53:41.920Z,96371.41
2022-10-18T22:56:11.763Z,96370.16
2022-10-18T22:58:38.821Z,96375.22
2022-10-18T23:01:08.482Z,96372.47
2022-10-18T23:03:36.299Z,96364.84
2022-10-18T23:06:05.345Z,96365.44
2022-10-18T23:08:33.082Z,96357.66
2022-10-18T23:11:01.600Z,96356.66
2022-10-18T23:13:28.604Z,96354.00
2022-10-18T23:16:04.413Z,96348.44
2022-10-18T23:18:33.113Z,96352.38
2022-10-18T23:21:04.564Z,96349.38
2022-10-18T23:23:33.920Z,96346.47
2022-10-18T23:26:04.079Z,96350.63
2022-10-18T23:28:33.884Z,96341.75
2022-10-18T23:31:06.367Z,96347.78
2022-10-18T23:33:33.400Z,96346.72
2022-10-18T23:36:00.557Z,96343.16
2022-10-18T23:38:28.981Z,96336.44
2022-10-18T23:40:56.481Z,96340.38
2022-10-18T23:43:25.201Z,96335.06
2022-10-18T23:45:52.752Z,96342.09
2022-10-18T23:48:20.041Z,96340.16
2022-10-18T23:50:47.901Z,96343.25
2022-10-18T23:53:15.196Z,96345.09
2022-10-18T23:55:52.860Z,96342.78
2022-10-18T23:58:20.270Z,96339.91
